Time;durP1;ratioP1;P1;durP2;ratioP2;P2;SDS_P1;SDS_P2;PMS_P1;PMS_P2;Temp;Humidity;BMP_temperature;BMP_pressure;BME280_temperature;BME280_humidity;BME280_pressure;Samples;Min_cycle;Max_cycle;Signal;HPM_P1;HPM_P2
2022/07/16 00:02:51;;;;;;;12.45;1.10;;;;;;;;;;4736258;30;20048;-61
2022/07/16 00:05:19;;;;;;;6.85;0.88;;;;;;;;;;4737184;30;20061;-61
2022/07/16 00:07:46;;;;;;;1.13;0.57;;;;;;;;;;4736919;30;20066;-61
2022/07/16 00:10:14;;;;;;;7.43;1.52;;;;;;;;;;4736755;30;20571;-59
2022/07/16 00:12:41;;;;;;;4.03;0.80;;;;;;;;;;4737241;30;20057;-60
2022/07/16 00:15:09;;;;;;;2.13;0.90;;;;;;;;;;4737043;30;20548;-61
2022/07/16 00:17:37;;;;;;;2.97;1.02;;;;;;;;;;4737111;30;20119;-61
2022/07/16 00:20:05;;;;;;;4.68;0.70;;;;;;;;;;4736800;30;20056;-60
2022/07/16 00:22:32;;;;;;;2.83;0.80;;;;;;;;;;4736672;30;20067;-60
2022/07/16 00:25:00;;;;;;;2.42;0.50;;;;;;;;;;4736842;30;20087;-61
2022/07/16 00:27:27;;;;;;;0.73;0.50;;;;;;;;;;4736615;30;20520;-61
2022/07/16 00:29:54;;;;;;;5.07;0.70;;;;;;;;;;4736453;30;20462;-60
2022/07/16 00:32:21;;;;;;;2.50;0.80;;;;;;;;;;4736826;30;20544;-60
2022/07/16 00:34:49;;;;;;;1.52;0.73;;;;;;;;;;4736787;30;20059;-60
2022/07/16 00:37:16;;;;;;;8.40;1.27;;;;;;;;;;4736363;30;20056;-61
2022/07/16 00:39:43;;;;;;;1.42;0.60;;;;;;;;;;4736603;30;20041;-61
2022/07/16 00:42:10;;;;;;;2.38;0.55;;;;;;;;;;4736305;30;20056;-61
2022/07/16 00:44:39;;;;;;;5.65;1.17;;;;;;;;;;4736696;30;20052;-61
2022/07/16 00:47:06;;;;;;;2.60;0.73;;;;;;;;;;4736410;30;20056;-61
2022/07/16 00:49:34;;;;;;;3.70;0.75;;;;;;;;;;4736427;30;20055;-61
2022/07/16 00:52:01;;;;;;;3.08;0.70;;;;;;;;;;4720271;30;20526;-61
2022/07/16 00:54:29;;;;;;;1.00;0.70;;;;;;;;;;4736162;30;20114;-61
2022/07/16 00:56:57;;;;;;;5.85;0.93;;;;;;;;;;4736150;30;20052;-61
2022/07/16 00:59:24;;;;;;;3.38;1.17;;;;;;;;;;4736019;30;20061;-60
2022/07/16 01:01:51;;;;;;;2.33;0.65;;;;;;;;;;4736187;30;20049;-61
2022/07/16 01:04:19;;;;;;;8.13;1.58;;;;;;;;;;4735948;30;20048;-61
2022/07/16 01:06:49;;;;;;;1.88;0.90;;;;;;;;;;4735965;30;20127;-61
2022/07/16 01:09:17;;;;;;;4.65;1.77;;;;;;;;;;4736000;30;20052;-60
2022/07/16 01:11:46;;;;;;;1.05;0.75;;;;;;;;;;4735890;30;20052;-60
2022/07/16 01:14:15;;;;;;;5.55;1.48;;;;;;;;;;4735728;30;20056;-60
2022/07/16 01:16:42;;;;;;;2.00;0.80;;;;;;;;;;4735808;30;20052;-61
2022/07/16 01:19:10;;;;;;;7.03;1.13;;;;;;;;;;4736122;30;20052;-61
2022/07/16 01:21:39;;;;;;;2.40;1.40;;;;;;;;;;4736024;30;20052;-61
2022/07/16 01:24:06;;;;;;;2.05;1.15;;;;;;;;;;4736054;30;20045;-61
2022/07/16 01:26:33;;;;;;;1.40;0.90;;;;;;;;;;4735705;30;20044;-60
2022/07/16 01:29:01;;;;;;;1.45;0.82;;;;;;;;;;4735682;30;20462;-61
2022/07/16 01:31:28;;;;;;;1.88;1.15;;;;;;;;;;4735331;30;20045;-61
2022/07/16 01:36:41;;;;;;;0.85;0.60;;;;;;;;;;4735730;30;20121;-61
2022/07/16 01:39:08;;;;;;;1.77;0.60;;;;;;;;;;4735645;30;20059;-61
2022/07/16 01:41:37;;;;;;;2.70;1.00;;;;;;;;;;4735641;30;20048;-63
2022/07/16 01:44:04;;;;;;;6.65;2.15;;;;;;;;;;4735178;30;20118;-61
2022/07/16 01:46:31;;;;;;;2.15;1.13;;;;;;;;;;4735206;30;20056;-61
2022/07/16 01:48:58;;;;;;;3.55;1.20;;;;;;;;;;4735304;30;20051;-60
2022/07/16 01:51:26;;;;;;;3.00;0.90;;;;;;;;;;4735270;30;20049;-61
2022/07/16 01:53:53;;;;;;;4.63;1.05;;;;;;;;;;4735285;30;20072;-61
2022/07/16 01:56:20;;;;;;;1.00;0.60;;;;;;;;;;4735107;30;20522;-57
2022/07/16 01:58:48;;;;;;;9.52;4.45;;;;;;;;;;4735092;30;20075;-60
2022/07/16 02:01:17;;;;;;;2.50;1.13;;;;;;;;;;4735229;30;20041;-61
2022/07/16 02:03:44;;;;;;;1.17;0.70;;;;;;;;;;4735058;30;20049;-62
2022/07/16 02:06:11;;;;;;;1.48;0.70;;;;;;;;;;4719539;30;20064;-61
2022/07/16 02:08:39;;;;;;;6.10;0.80;;;;;;;;;;4735279;30;20075;-61
2022/07/16 02:11:07;;;;;;;3.40;0.80;;;;;;;;;;4734981;30;20044;-61
2022/07/16 02:13:34;;;;;;;2.35;1.20;;;;;;;;;;4735013;30;20056;-61
2022/07/16 02:16:02;;;;;;;1.20;0.88;;;;;;;;;;4734880;30;20106;-61
2022/07/16 02:18:29;;;;;;;3.30;0.90;;;;;;;;;;4734987;30;20056;-60
2022/07/16 02:20:57;;;;;;;1.17;0.65;;;;;;;;;;4734772;30;20044;-60
2022/07/16 02:23:24;;;;;;;2.55;0.73;;;;;;;;;;4734666;30;20113;-60
2022/07/16 02:25:54;;;;;;;2.38;0.70;;;;;;;;;;4734134;30;20041;-58
2022/07/16 02:28:21;;;;;;;12.15;5.22;;;;;;;;;;4734491;30;20078;-61
2022/07/16 02:30:49;;;;;;;6.00;2.45;;;;;;;;;;4734674;30;20053;-61
2022/07/16 02:33:19;;;;;;;1.50;0.90;;;;;;;;;;4734518;30;20048;-61
2022/07/16 02:35:46;;;;;;;4.10;0.90;;;;;;;;;;4734646;30;20063;-61
2022/07/16 02:38:14;;;;;;;2.67;0.80;;;;;;;;;;4734404;30;20053;-61
2022/07/16 02:40:42;;;;;;;2.83;0.98;;;;;;;;;;4734557;30;20131;-61
2022/07/16 02:43:10;;;;;;;1.83;0.82;;;;;;;;;;4734751;30;20049;-61
2022/07/16 02:45:40;;;;;;;5.45;2.28;;;;;;;;;;4734616;30;20048;-60
2022/07/16 02:48:10;;;;;;;18.85;7.22;;;;;;;;;;4734486;30;20062;-60
2022/07/16 02:50:38;;;;;;;8.68;2.97;;;;;;;;;;4734245;30;20049;-60
2022/07/16 02:53:05;;;;;;;2.55;1.55;;;;;;;;;;4734349;30;20041;-60
2022/07/16 02:55:33;;;;;;;2.83;1.42;;;;;;;;;;4734313;30;20532;-60
2022/07/16 02:58:00;;;;;;;2.70;0.95;;;;;;;;;;4733953;30;20585;-61
2022/07/16 03:00:28;;;;;;;1.90;1.17;;;;;;;;;;4734365;30;20045;-61
2022/07/16 03:02:56;;;;;;;1.30;0.80;;;;;;;;;;4734150;30;20535;-60
2022/07/16 03:05:24;;;;;;;1.65;0.90;;;;;;;;;;4734174;30;20124;-61
2022/07/16 03:07:52;;;;;;;1.25;0.73;;;;;;;;;;4734007;30;20452;-60
2022/07/16 03:10:19;;;;;;;0.82;0.60;;;;;;;;;;4734287;30;20051;-61
2022/07/16 03:12:47;;;;;;;2.08;0.90;;;;;;;;;;4734202;30;20497;-59
2022/07/16 03:15:14;;;;;;;2.08;1.10;;;;;;;;;;4734027;30;20099;-60
2022/07/16 03:17:41;;;;;;;7.70;4.45;;;;;;;;;;4733925;30;20053;-59
2022/07/16 03:20:11;;;;;;;6.68;1.92;;;;;;;;;;4733912;30;20059;-60
2022/07/16 03:22:45;;;;;;;1.40;0.90;;;;;;;;;;4734200;30;20077;-60
2022/07/16 03:25:16;;;;;;;1.48;0.70;;;;;;;;;;4732373;30;20123;-60
2022/07/16 03:27:44;;;;;;;4.03;0.93;;;;;;;;;;4715327;30;20049;-60
2022/07/16 03:30:12;;;;;;;1.30;0.60;;;;;;;;;;4722261;30;20041;-59
2022/07/16 03:32:40;;;;;;;2.25;1.02;;;;;;;;;;4734203;30;20052;-59
2022/07/16 03:35:11;;;;;;;2.20;0.60;;;;;;;;;;4733861;30;20049;-61
2022/07/16 03:38:57;;;;;;;0.90;0.52;;;;;;;;;;4734076;30;20049;-60
2022/07/16 03:40:27;;;;;;;2.17;0.95;;;;;;;;;;4733772;30;20413;-61
2022/07/16 03:42:56;;;;;;;1.67;1.00;;;;;;;;;;4733781;30;20048;-60
2022/07/16 03:45:23;;;;;;;67.13;33.03;;;;;;;;;;4733662;30;20869;-61
2022/07/16 03:47:50;;;;;;;20.45;10.60;;;;;;;;;;4733614;30;20047;-60
2022/07/16 03:50:18;;;;;;;2.95;1.20;;;;;;;;;;4717959;30;20514;-60
2022/07/16 03:52:46;;;;;;;1.00;0.60;;;;;;;;;;4733647;30;20072;-60
2022/07/16 03:55:14;;;;;;;1.45;0.73;;;;;;;;;;4717719;30;20134;-60
2022/07/16 03:57:42;;;;;;;5.05;0.77;;;;;;;;;;4733839;30;20060;-60
2022/07/16 04:00:11;;;;;;;1.35;0.60;;;;;;;;;;4733648;30;20056;-60
2022/07/16 04:02:39;;;;;;;1.00;0.60;;;;;;;;;;4734132;30;20068;-60
2022/07/16 04:05:10;;;;;;;1.30;0.52;;;;;;;;;;4733612;30;20143;-59
2022/07/16 04:07:38;;;;;;;2.20;0.73;;;;;;;;;;4718570;30;20509;-60
2022/07/16 04:10:05;;;;;;;1.17;0.65;;;;;;;;;;4733438;30;20457;-59
2022/07/16 04:12:33;;;;;;;1.10;0.80;;;;;;;;;;4733590;30;20107;-61
2022/07/16 04:15:00;;;;;;;1.42;0.60;;;;;;;;;;4733239;30;20045;-58
2022/07/16 04:17:28;;;;;;;3.72;1.60;;;;;;;;;;4733524;30;20051;-59
2022/07/16 04:19:55;;;;;;;1.55;0.60;;;;;;;;;;4733570;30;20059;-60
2022/07/16 04:22:23;;;;;;;1.40;0.55;;;;;;;;;;4733386;30;20045;-60
2022/07/16 04:24:50;;;;;;;1.85;0.80;;;;;;;;;;4733337;30;20083;-60
2022/07/16 04:27:17;;;;;;;2.13;0.80;;;;;;;;;;4733260;30;20057;-61
2022/07/16 04:29:45;;;;;;;1.33;0.60;;;;;;;;;;4733288;30;20109;-60
2022/07/16 04:32:13;;;;;;;2.33;0.60;;;;;;;;;;4733304;30;20531;-60
2022/07/16 04:34:40;;;;;;;1.15;0.63;;;;;;;;;;4717768;30;20099;-60
2022/07/16 04:37:07;;;;;;;1.17;0.43;;;;;;;;;;4733402;30;20060;-60
2022/07/16 04:39:35;;;;;;;1.23;0.47;;;;;;;;;;4733278;30;20049;-60
2022/07/16 04:42:02;;;;;;;1.40;0.57;;;;;;;;;;4732825;30;20064;-60
2022/07/16 04:44:30;;;;;;;2.65;1.75;;;;;;;;;;4733156;30;20063;-60
2022/07/16 04:46:57;;;;;;;2.20;1.23;;;;;;;;;;4733166;30;20399;-60
2022/07/16 04:49:24;;;;;;;2.60;0.50;;;;;;;;;;4720333;30;20056;-60
2022/07/16 04:51:52;;;;;;;1.52;0.45;;;;;;;;;;4736391;30;20055;-60
2022/07/16 04:54:19;;;;;;;0.30;0.30;;;;;;;;;;4736326;30;20049;-60
2022/07/16 04:56:46;;;;;;;0.40;0.30;;;;;;;;;;4736183;30;20055;-60
2022/07/16 04:59:13;;;;;;;1.60;0.40;;;;;;;;;;4720712;30;20135;-59
2022/07/16 05:01:42;;;;;;;1.67;0.35;;;;;;;;;;4736470;30;20052;-60
2022/07/16 05:04:09;;;;;;;1.00;0.60;;;;;;;;;;4736227;30;20041;-60
2022/07/16 05:06:37;;;;;;;1.13;0.45;;;;;;;;;;4736246;30;20044;-61
2022/07/16 05:09:05;;;;;;;1.05;0.40;;;;;;;;;;4720376;30;20135;-60
2022/07/16 05:11:32;;;;;;;2.83;0.38;;;;;;;;;;4736075;30;20052;-60
2022/07/16 05:14:00;;;;;;;0.52;0.30;;;;;;;;;;4735720;30;20052;-60
2022/07/16 05:16:27;;;;;;;3.05;0.55;;;;;;;;;;4735864;30;20067;-60
2022/07/16 05:18:55;;;;;;;2.03;0.43;;;;;;;;;;4736291;30;20052;-60
2022/07/16 05:21:22;;;;;;;1.30;0.40;;;;;;;;;;4736029;30;20070;-60
2022/07/16 05:23:51;;;;;;;3.05;0.65;;;;;;;;;;4735883;30;20053;-60
2022/07/16 05:26:18;;;;;;;1.05;0.57;;;;;;;;;;4735810;30;20052;-60
2022/07/16 05:28:46;;;;;;;0.75;0.40;;;;;;;;;;4735898;30;20473;-60
2022/07/16 05:31:13;;;;;;;0.55;0.30;;;;;;;;;;4735645;30;20123;-60
2022/07/16 05:33:41;;;;;;;0.57;0.35;;;;;;;;;;4735771;30;20053;-60
2022/07/16 05:36:08;;;;;;;1.02;0.40;;;;;;;;;;4735687;30;20132;-60
2022/07/16 05:38:35;;;;;;;1.90;0.43;;;;;;;;;;4735459;30;20525;-60
2022/07/16 05:41:03;;;;;;;0.30;0.20;;;;;;;;;;4735644;30;20049;-60
2022/07/16 05:43:30;;;;;;;0.82;0.40;;;;;;;;;;4735283;30;20072;-59
2022/07/16 05:45:57;;;;;;;3.58;0.40;;;;;;;;;;4735141;30;20143;-59
2022/07/16 05:48:29;;;;;;;2.80;0.52;;;;;;;;;;4728271;30;20089;-60
2022/07/16 05:50:57;;;;;;;2.58;0.73;;;;;;;;;;4735386;30;20412;-59
2022/07/16 05:53:24;;;;;;;2.70;0.40;;;;;;;;;;4735388;30;20045;-59
2022/07/16 05:55:51;;;;;;;0.77;0.43;;;;;;;;;;4735365;30;20048;-59
2022/07/16 05:58:18;;;;;;;0.52;0.43;;;;;;;;;;4734650;30;20057;-58
2022/07/16 06:00:47;;;;;;;1.30;0.40;;;;;;;;;;4734750;30;20057;-58
2022/07/16 06:03:14;;;;;;;0.95;0.40;;;;;;;;;;4735260;30;20055;-58
2022/07/16 06:05:41;;;;;;;0.75;0.50;;;;;;;;;;4735507;30;20080;-59
2022/07/16 06:08:08;;;;;;;1.77;0.55;;;;;;;;;;4735200;30;20679;-59
2022/07/16 06:10:35;;;;;;;2.42;0.68;;;;;;;;;;4734573;30;20064;-59
2022/07/16 06:13:03;;;;;;;1.23;0.55;;;;;;;;;;4735170;30;20513;-59
2022/07/16 06:15:30;;;;;;;2.42;0.65;;;;;;;;;;4734996;30;20056;-59
2022/07/16 06:17:58;;;;;;;1.38;0.50;;;;;;;;;;4734906;30;20040;-59
2022/07/16 06:20:25;;;;;;;2.35;0.60;;;;;;;;;;4727885;30;20055;-59
2022/07/16 06:22:54;;;;;;;2.55;0.68;;;;;;;;;;4734921;30;20044;-59
2022/07/16 06:25:21;;;;;;;1.42;0.40;;;;;;;;;;4734815;30;20107;-59
2022/07/16 06:27:49;;;;;;;1.95;0.57;;;;;;;;;;4734826;30;20080;-59
2022/07/16 06:30:17;;;;;;;1.25;0.70;;;;;;;;;;4734779;30;20387;-59
2022/07/16 06:32:44;;;;;;;0.95;0.70;;;;;;;;;;4734827;30;20071;-59
2022/07/16 06:35:13;;;;;;;0.63;0.38;;;;;;;;;;4734452;30;20059;-59
2022/07/16 06:37:43;;;;;;;1.02;0.50;;;;;;;;;;4734570;30;20509;-59
2022/07/16 06:40:11;;;;;;;1.65;0.50;;;;;;;;;;4734519;30;20144;-59
2022/07/16 06:42:38;;;;;;;1.75;0.60;;;;;;;;;;4719289;30;20053;-59
2022/07/16 06:45:08;;;;;;;1.45;0.38;;;;;;;;;;4718718;30;20410;-58
2022/07/16 06:47:36;;;;;;;1.17;0.50;;;;;;;;;;4734586;30;20568;-59
2022/07/16 06:50:04;;;;;;;1.15;0.52;;;;;;;;;;4734290;30;20383;-59
2022/07/16 06:52:31;;;;;;;1.15;0.50;;;;;;;;;;4734245;30;20134;-59
2022/07/16 06:54:59;;;;;;;1.02;0.32;;;;;;;;;;4734502;30;20060;-59
2022/07/16 06:57:26;;;;;;;0.65;0.40;;;;;;;;;;4734384;30;20057;-59
2022/07/16 06:59:53;;;;;;;0.88;0.40;;;;;;;;;;4734164;30;20057;-60
2022/07/16 07:02:20;;;;;;;0.30;0.30;;;;;;;;;;4734255;30;20106;-59
2022/07/16 07:04:47;;;;;;;2.78;0.50;;;;;;;;;;4734295;30;20055;-59
2022/07/16 07:07:15;;;;;;;0.60;0.40;;;;;;;;;;4734263;30;20502;-59
2022/07/16 07:09:42;;;;;;;0.73;0.40;;;;;;;;;;4733955;30;20052;-59
2022/07/16 07:12:10;;;;;;;1.23;0.60;;;;;;;;;;4734030;30;20110;-58
2022/07/16 07:14:37;;;;;;;1.45;0.50;;;;;;;;;;4734204;30;20127;-59
2022/07/16 07:17:04;;;;;;;0.60;0.40;;;;;;;;;;4734302;30;20045;-61
2022/07/16 07:19:32;;;;;;;1.20;0.50;;;;;;;;;;4733911;30;20571;-59
2022/07/16 07:22:00;;;;;;;45.95;26.52;;;;;;;;;;4733924;30;20056;-59
2022/07/16 07:24:27;;;;;;;5.93;2.30;;;;;;;;;;4733860;30;20052;-59
2022/07/16 07:27:16;;;;;;;2.30;0.50;;;;;;;;;;4733660;30;20461;-59
2022/07/16 07:29:43;;;;;;;1.75;0.60;;;;;;;;;;4733875;30;20045;-58
2022/07/16 07:32:11;;;;;;;2.50;0.70;;;;;;;;;;4733944;30;20468;-58
2022/07/16 07:34:38;;;;;;;0.63;0.32;;;;;;;;;;4734156;30;20044;-59
2022/07/16 07:37:06;;;;;;;2.42;0.50;;;;;;;;;;4733947;30;20068;-57
2022/07/16 07:39:34;;;;;;;1.70;0.40;;;;;;;;;;4733839;30;20053;-52
2022/07/16 07:42:01;;;;;;;18.40;12.30;;;;;;;;;;4733780;30;20076;-58
2022/07/16 07:44:29;;;;;;;2.28;1.20;;;;;;;;;;4733643;30;20067;-58
2022/07/16 07:46:56;;;;;;;1.20;0.43;;;;;;;;;;4734155;30;20075;-58
2022/07/16 07:49:23;;;;;;;1.42;0.40;;;;;;;;;;4733813;30;20383;-58
2022/07/16 07:51:53;;;;;;;1.42;0.40;;;;;;;;;;4733682;30;20536;-58
2022/07/16 07:54:21;;;;;;;3.70;0.43;;;;;;;;;;4733772;30;20048;-58
2022/07/16 07:56:49;;;;;;;2.13;0.40;;;;;;;;;;4733571;30;20147;-58
2022/07/16 07:59:16;;;;;;;0.85;0.40;;;;;;;;;;4733484;30;20061;-58
2022/07/16 08:01:44;;;;;;;0.45;0.35;;;;;;;;;;4733569;30;20091;-58
2022/07/16 08:04:11;;;;;;;1.63;0.40;;;;;;;;;;4733860;30;20120;-59
2022/07/16 08:06:40;;;;;;;1.02;0.40;;;;;;;;;;4717947;30;20593;-55
2022/07/16 08:09:07;;;;;;;5.93;3.35;;;;;;;;;;4733729;30;20048;-58
2022/07/16 08:11:34;;;;;;;3.50;0.70;;;;;;;;;;4733392;30;20045;-58
2022/07/16 08:14:03;;;;;;;2.28;0.45;;;;;;;;;;4733570;30;20199;-59
2022/07/16 08:16:51;;;;;;;1.55;0.40;;;;;;;;;;4733527;30;20045;-58
2022/07/16 08:19:18;;;;;;;0.95;0.40;;;;;;;;;;4717654;30;20051;-58
2022/07/16 08:21:46;;;;;;;2.13;0.40;;;;;;;;;;4733508;30;20049;-58
2022/07/16 08:27:05;;;;;;;1.30;0.40;;;;;;;;;;4712609;30;20061;-59
2022/07/16 08:29:32;;;;;;;0.30;0.20;;;;;;;;;;4736616;30;20427;-57
2022/07/16 08:31:59;;;;;;;0.77;0.28;;;;;;;;;;4736743;30;20044;-58
2022/07/16 08:34:27;;;;;;;0.98;0.35;;;;;;;;;;4736421;30;20052;-55
2022/07/16 08:36:54;;;;;;;1.23;0.40;;;;;;;;;;4736884;30;20514;-58
2022/07/16 08:39:22;;;;;;;1.05;0.40;;;;;;;;;;4721351;30;20406;-58
2022/07/16 08:41:49;;;;;;;1.30;0.43;;;;;;;;;;4736448;30;20049;-59
2022/07/16 08:44:17;;;;;;;1.17;0.35;;;;;;;;;;4736491;30;20049;-58
2022/07/16 08:46:45;;;;;;;0.70;0.20;;;;;;;;;;4736379;30;20055;-58
2022/07/16 08:49:12;;;;;;;1.58;0.30;;;;;;;;;;4736555;30;20121;-58
2022/07/16 08:51:40;;;;;;;1.15;0.50;;;;;;;;;;4736560;30;20583;-58
2022/07/16 08:54:13;;;;;;;0.63;0.40;;;;;;;;;;4736656;30;20119;-59
2022/07/16 08:56:45;;;;;;;0.60;0.40;;;;;;;;;;4736505;30;20044;-58
2022/07/16 08:59:13;;;;;;;0.47;0.30;;;;;;;;;;4736329;30;20114;-59
2022/07/16 09:01:42;;;;;;;2.78;0.50;;;;;;;;;;4736531;30;20128;-59
2022/07/16 09:04:09;;;;;;;0.82;0.40;;;;;;;;;;4736253;30;20061;-59
2022/07/16 09:06:37;;;;;;;5.90;0.80;;;;;;;;;;4736235;30;20048;-58
2022/07/16 09:09:04;;;;;;;1.02;0.40;;;;;;;;;;4736205;30;20517;-58
2022/07/16 09:11:35;;;;;;;1.58;0.40;;;;;;;;;;4736196;30;20434;-59
2022/07/16 09:14:09;;;;;;;0.50;0.30;;;;;;;;;;4735904;30;20114;-59
2022/07/16 09:16:44;;;;;;;0.38;0.30;;;;;;;;;;4736131;30;20527;-59
2022/07/16 09:19:16;;;;;;;2.15;0.30;;;;;;;;;;4735993;30;20078;-58
2022/07/16 09:22:03;;;;;;;112.43;62.42;;;;;;;;;;4735968;30;20048;-59
2022/07/16 09:24:38;;;;;;;3.58;1.27;;;;;;;;;;4735509;30;20763;-59
2022/07/16 09:27:22;;;;;;;1.08;0.30;;;;;;;;;;4735908;30;20049;-59
2022/07/16 09:29:50;;;;;;;0.30;0.30;;;;;;;;;;4732308;30;20041;-58
2022/07/16 09:32:29;;;;;;;0.82;0.40;;;;;;;;;;4718425;30;20045;-59
2022/07/16 09:35:16;;;;;;;0.52;0.30;;;;;;;;;;4717877;30;20055;-58
2022/07/16 09:38:01;;;;;;;0.47;0.20;;;;;;;;;;4718173;30;20052;-59
2022/07/16 09:40:31;;;;;;;0.60;0.40;;;;;;;;;;4718115;30;20119;-59
2022/07/16 09:43:04;;;;;;;1.27;0.32;;;;;;;;;;4718111;30;20049;-56
2022/07/16 09:45:33;;;;;;;16.63;8.23;;;;;;;;;;4718268;30;20053;-54
2022/07/16 09:48:01;;;;;;;2.17;0.65;;;;;;;;;;4717819;30;20045;-58
2022/07/16 09:50:36;;;;;;;2.45;0.38;;;;;;;;;;4718033;30;20053;-59
2022/07/16 09:53:19;;;;;;;0.63;0.30;;;;;;;;;;4717710;30;20045;-60
2022/07/16 09:56:05;;;;;;;1.33;0.40;;;;;;;;;;4723462;30;20123;-59
2022/07/16 09:58:33;;;;;;;0.50;0.30;;;;;;;;;;4735202;30;20079;-59
2022/07/16 10:01:03;;;;;;;1.85;0.30;;;;;;;;;;4735184;30;20083;-60
2022/07/16 10:03:33;;;;;;;0.60;0.23;;;;;;;;;;4735259;30;20044;-60
2022/07/16 10:06:01;;;;;;;1.23;0.40;;;;;;;;;;4735083;30;20290;-59
2022/07/16 10:08:29;;;;;;;0.75;0.30;;;;;;;;;;4734998;30;20084;-59
2022/07/16 10:10:57;;;;;;;0.35;0.30;;;;;;;;;;4735031;30;20095;-59
2022/07/16 10:13:27;;;;;;;1.40;0.30;;;;;;;;;;4735190;30;20409;-59
2022/07/16 10:15:55;;;;;;;0.20;0.20;;;;;;;;;;4734953;30;20055;-59
2022/07/16 10:18:45;;;;;;;2.05;0.40;;;;;;;;;;4734910;30;20052;-59
2022/07/16 10:21:21;;;;;;;1.38;0.68;;;;;;;;;;4734857;30;20463;-58
2022/07/16 10:24:03;;;;;;;0.40;0.30;;;;;;;;;;4734757;30;20573;-59
2022/07/16 10:26:32;;;;;;;0.80;0.30;;;;;;;;;;4728128;30;20044;-58
2022/07/16 10:29:00;;;;;;;0.17;0.13;;;;;;;;;;4734802;30;20084;-59
2022/07/16 10:31:35;;;;;;;1.75;0.43;;;;;;;;;;4734764;30;20387;-59
2022/07/16 10:34:15;;;;;;;1.52;0.30;;;;;;;;;;4734805;30;20138;-60
2022/07/16 10:36:54;;;;;;;1.10;0.30;;;;;;;;;;4719093;30;20045;-59
2022/07/16 10:39:24;;;;;;;0.20;0.20;;;;;;;;;;4734363;30;20036;-60
2022/07/16 10:41:52;;;;;;;29.45;20.63;;;;;;;;;;4719042;30;20055;-58
2022/07/16 10:44:22;;;;;;;3.50;1.65;;;;;;;;;;4731468;30;20049;-58
2022/07/16 10:46:54;;;;;;;1.70;0.30;;;;;;;;;;4732147;30;20049;-57
2022/07/16 10:49:24;;;;;;;0.70;0.20;;;;;;;;;;4733752;30;20049;-57
2022/07/16 10:52:08;;;;;;;0.20;0.20;;;;;;;;;;4734126;30;20457;-59
2022/07/16 10:54:38;;;;;;;0.77;0.30;;;;;;;;;;4734068;30;20053;-59
2022/07/16 10:57:10;;;;;;;0.90;0.40;;;;;;;;;;4734127;30;20057;-59
2022/07/16 10:59:42;;;;;;;0.90;0.20;;;;;;;;;;4734155;30;20071;-58
2022/07/16 11:02:12;;;;;;;5.10;2.35;;;;;;;;;;4734500;30;20052;-59
2022/07/16 11:04:45;;;;;;;0.30;0.20;;;;;;;;;;4733779;30;20073;-60
2022/07/16 11:07:16;;;;;;;0.68;0.30;;;;;;;;;;4734075;30;20430;-59
2022/07/16 11:09:49;;;;;;;1.73;0.40;;;;;;;;;;4734174;30;20053;-59
2022/07/16 11:12:20;;;;;;;1.27;0.45;;;;;;;;;;4718593;30;20041;-59
2022/07/16 11:14:50;;;;;;;0.50;0.30;;;;;;;;;;4733676;30;20060;-60
2022/07/16 11:17:21;;;;;;;0.28;0.20;;;;;;;;;;4734036;30;20524;-59
2022/07/16 11:19:55;;;;;;;0.98;0.20;;;;;;;;;;4733471;30;20057;-59
2022/07/16 11:22:26;;;;;;;1.90;0.20;;;;;;;;;;4733917;30;20045;-59
2022/07/16 11:25:03;;;;;;;0.20;0.20;;;;;;;;;;4733757;30;20124;-59
2022/07/16 11:27:33;;;;;;;0.85;0.20;;;;;;;;;;4733817;30;20076;-59
2022/07/16 11:30:03;;;;;;;0.77;0.22;;;;;;;;;;4733250;30;20504;-59
2022/07/16 11:32:31;;;;;;;0.38;0.20;;;;;;;;;;4733798;30;20073;-59
2022/07/16 11:35:06;;;;;;;0.55;0.28;;;;;;;;;;4733429;30;20076;-59
2022/07/16 11:37:51;;;;;;;0.20;0.20;;;;;;;;;;4736757;30;20044;-59
2022/07/16 11:40:35;;;;;;;0.20;0.20;;;;;;;;;;4750868;30;20452;-58
2022/07/16 11:43:02;;;;;;;0.20;0.20;;;;;;;;;;4739672;30;20387;-60
2022/07/16 11:45:42;;;;;;;3.13;0.35;;;;;;;;;;4731358;30;20044;-59
2022/07/16 11:48:13;;;;;;;1.05;0.38;;;;;;;;;;4732261;30;20136;-58
2022/07/16 11:50:43;;;;;;;1.48;0.60;;;;;;;;;;4733869;30;20052;-59
2022/07/16 11:53:11;;;;;;;2.35;0.25;;;;;;;;;;4733314;30;20075;-59
2022/07/16 11:55:45;;;;;;;0.22;0.20;;;;;;;;;;4733770;30;20061;-59
2022/07/16 11:58:15;;;;;;;0.20;0.20;;;;;;;;;;4736859;30;20067;-60
2022/07/16 12:00:45;;;;;;;0.95;0.20;;;;;;;;;;4736996;30;20422;-58
2022/07/16 12:03:13;;;;;;;0.98;0.25;;;;;;;;;;4736941;30;20060;-59
2022/07/16 12:05:41;;;;;;;0.55;0.20;;;;;;;;;;4737257;30;20217;-60
2022/07/16 12:08:09;;;;;;;1.33;0.20;;;;;;;;;;4736997;30;20072;-59
2022/07/16 12:11:01;;;;;;;1.10;0.25;;;;;;;;;;4736741;30;20052;-60
2022/07/16 12:13:28;;;;;;;0.22;0.10;;;;;;;;;;4736445;30;20481;-59
2022/07/16 12:15:58;;;;;;;0.35;0.20;;;;;;;;;;4736960;30;20044;-59
2022/07/16 12:18:25;;;;;;;0.32;0.30;;;;;;;;;;4729751;30;20513;-59
2022/07/16 12:20:53;;;;;;;0.20;0.20;;;;;;;;;;4736923;30;20518;-60
2022/07/16 12:23:37;;;;;;;0.77;0.28;;;;;;;;;;4736254;30;20044;-59
2022/07/16 12:26:05;;;;;;;0.22;0.20;;;;;;;;;;4736683;30;20139;-59
2022/07/16 12:28:33;;;;;;;11.82;6.45;;;;;;;;;;4736502;30;20416;-60
2022/07/16 12:31:06;;;;;;;2.47;0.30;;;;;;;;;;4736716;30;20041;-59
2022/07/16 12:33:34;;;;;;;0.73;0.22;;;;;;;;;;4736277;30;20111;-59
2022/07/16 12:36:04;;;;;;;0.50;0.20;;;;;;;;;;4736329;30;20077;-60
2022/07/16 12:38:38;;;;;;;1.00;0.30;;;;;;;;;;4736417;30;20529;-60
2022/07/16 12:41:11;;;;;;;0.40;0.20;;;;;;;;;;4736551;30;20501;-60
2022/07/16 12:43:40;;;;;;;1.35;0.20;;;;;;;;;;4736455;30;20091;-59
2022/07/16 12:46:09;;;;;;;1.35;0.25;;;;;;;;;;4735483;30;20049;-59
2022/07/16 12:48:48;;;;;;;2.92;0.20;;;;;;;;;;4736160;30;20064;-59
2022/07/16 12:51:21;;;;;;;0.28;0.10;;;;;;;;;;4736469;30;20057;-59
2022/07/16 12:53:49;;;;;;;1.67;0.20;;;;;;;;;;4736273;30;20394;-59
2022/07/16 12:59:04;;;;;;;0.60;0.30;;;;;;;;;;4735811;30;21007;-59
2022/07/16 13:01:32;;;;;;;0.22;0.10;;;;;;;;;;4736267;30;20059;-60
2022/07/16 13:04:00;;;;;;;2.60;0.20;;;;;;;;;;4735871;30;20125;-59
2022/07/16 13:06:27;;;;;;;1.60;0.30;;;;;;;;;;4735234;30;20044;-59
2022/07/16 13:08:56;;;;;;;0.28;0.20;;;;;;;;;;4735552;30;20084;-60
2022/07/16 13:11:23;;;;;;;2.05;0.20;;;;;;;;;;4735947;30;20106;-60
2022/07/16 13:13:51;;;;;;;0.32;0.20;;;;;;;;;;4736211;30;20036;-60
2022/07/16 13:16:20;;;;;;;2.47;0.20;;;;;;;;;;4735155;30;20059;-59
2022/07/16 13:18:49;;;;;;;0.65;0.30;;;;;;;;;;4736030;30;20061;-60
2022/07/16 13:21:18;;;;;;;3.63;0.80;;;;;;;;;;4735879;30;20131;-60
2022/07/16 13:23:47;;;;;;;0.28;0.15;;;;;;;;;;4735912;30;20498;-60
2022/07/16 13:26:16;;;;;;;0.88;0.20;;;;;;;;;;4735076;30;20502;-60
2022/07/16 13:28:44;;;;;;;0.10;0.10;;;;;;;;;;4735906;30;20043;-60
2022/07/16 13:31:11;;;;;;;1.25;0.20;;;;;;;;;;4735924;30;20048;-60
2022/07/16 13:33:39;;;;;;;1.35;0.47;;;;;;;;;;4735924;30;20059;-60
2022/07/16 13:36:09;;;;;;;0.60;0.20;;;;;;;;;;4735479;30;20049;-59
2022/07/16 13:38:38;;;;;;;0.32;0.13;;;;;;;;;;4735029;30;20079;-61
2022/07/16 13:41:07;;;;;;;0.77;0.17;;;;;;;;;;4735123;30;20072;-60
2022/07/16 13:43:35;;;;;;;0.35;0.10;;;;;;;;;;4735797;30;20080;-60
2022/07/16 13:46:07;;;;;;;0.25;0.17;;;;;;;;;;4735129;30;20529;-60
2022/07/16 13:48:41;;;;;;;0.93;0.20;;;;;;;;;;4734624;30;20604;-60
2022/07/16 13:51:09;;;;;;;1.67;0.40;;;;;;;;;;4735319;30;20111;-60
2022/07/16 13:53:57;;;;;;;1.17;0.30;;;;;;;;;;4722449;30;20047;-60
2022/07/16 13:56:24;;;;;;;1.98;0.90;;;;;;;;;;4735146;30;20071;-59
2022/07/16 13:58:52;;;;;;;0.88;0.17;;;;;;;;;;4734786;30;20073;-59
2022/07/16 14:01:19;;;;;;;1.33;0.40;;;;;;;;;;4735209;30;20055;-59
2022/07/16 14:03:47;;;;;;;3.75;1.67;;;;;;;;;;4734993;30;20045;-60
2022/07/16 14:06:14;;;;;;;0.65;0.28;;;;;;;;;;4734983;30;20513;-60
2022/07/16 14:08:42;;;;;;;0.10;0.10;;;;;;;;;;4734451;30;20588;-61
2022/07/16 14:11:10;;;;;;;0.22;0.20;;;;;;;;;;4735187;30;20099;-60
2022/07/16 14:13:37;;;;;;;0.63;0.30;;;;;;;;;;4719209;30;20049;-59
2022/07/16 14:16:06;;;;;;;0.85;0.60;;;;;;;;;;4734449;30;20506;-60
2022/07/16 14:18:33;;;;;;;2.88;0.70;;;;;;;;;;4733913;30;20049;-60
2022/07/16 14:21:00;;;;;;;0.40;0.30;;;;;;;;;;4734104;30;20088;-61
2022/07/16 14:23:31;;;;;;;1.95;0.47;;;;;;;;;;4734871;30;20115;-61
2022/07/16 14:25:59;;;;;;;2.63;0.25;;;;;;;;;;4734583;30;20045;-60
2022/07/16 14:28:26;;;;;;;0.75;0.20;;;;;;;;;;4727075;30;20576;-61
2022/07/16 14:30:54;;;;;;;1.45;0.10;;;;;;;;;;4734331;30;20550;-61
2022/07/16 14:33:22;;;;;;;0.10;0.10;;;;;;;;;;4734922;30;20044;-61
2022/07/16 14:35:49;;;;;;;0.30;0.20;;;;;;;;;;4734676;30;20044;-61
2022/07/16 14:38:16;;;;;;;0.57;0.22;;;;;;;;;;4718441;30;20045;-60
2022/07/16 14:40:44;;;;;;;1.83;0.40;;;;;;;;;;4734207;30;20049;-59
2022/07/16 14:43:11;;;;;;;2.15;0.40;;;;;;;;;;4734499;30;20144;-60
2022/07/16 14:45:38;;;;;;;1.73;0.85;;;;;;;;;;4734390;30;20053;-60
2022/07/16 14:48:06;;;;;;;0.40;0.20;;;;;;;;;;4718708;30;20529;-60
2022/07/16 14:50:33;;;;;;;0.57;0.30;;;;;;;;;;4734283;30;20159;-60
2022/07/16 14:53:00;;;;;;;0.90;0.22;;;;;;;;;;4734553;30;20379;-61
2022/07/16 14:55:28;;;;;;;0.98;0.20;;;;;;;;;;4734359;30;20040;-60
2022/07/16 14:57:55;;;;;;;0.68;0.20;;;;;;;;;;4733966;30;20058;-60
2022/07/16 15:00:25;;;;;;;0.88;0.20;;;;;;;;;;4734206;30;20131;-60
2022/07/16 15:02:52;;;;;;;0.20;0.20;;;;;;;;;;4733333;30;20041;-60
2022/07/16 15:05:23;;;;;;;1.95;0.30;;;;;;;;;;4733064;30;20048;-60